Time;durP1;ratioP1;P1;durP2;ratioP2;P2;SDS_P1;SDS_P2;PMS_P1;PMS_P2;Temp;Humidity;BMP_temperature;BMP_pressure;BME280_temperature;BME280_humidity;BME280_pressure;Samples;Min_cycle;Max_cycle;Signal;HPM_P1;HPM_P2
2023/11/14 00:01:37;;;;;;;18.70;11.40;;;;;;;3.68;85.02;98285.58;219385;1260;140059;-69
2023/11/14 00:06:40;;;;;;;17.10;10.40;;;;;;;3.71;85.51;98280.38;220109;1258;140222;-68
2023/11/14 00:11:43;;;;;;;22.50;13.30;;;;;;;3.71;85.52;98214.29;219803;1260;142228;-67
2023/11/14 00:16:45;;;;;;;19.40;11.60;;;;;;;3.68;85.84;98159.09;220515;1259;140461;-70
2023/11/14 00:21:48;;;;;;;18.90;12.90;;;;;;;3.66;86.47;98152.73;220200;1256;140451;-69
2023/11/14 00:26:50;;;;;;;18.40;12.00;;;;;;;3.68;86.80;98137.27;220363;1257;140206;-69
2023/11/14 00:31:54;;;;;;;21.00;13.40;;;;;;;3.71;87.12;98098.13;220250;1260;140484;-71
2023/11/14 00:36:58;;;;;;;25.60;15.50;;;;;;;3.75;87.38;98090.89;219563;1258;141432;-69
2023/11/14 00:42:03;;;;;;;21.40;13.50;;;;;;;3.82;87.75;98100.54;220065;1260;141389;-69
2023/11/14 00:47:06;;;;;;;20.30;13.10;;;;;;;3.87;88.12;98098.52;220280;1256;140543;-69
2023/11/14 00:52:09;;;;;;;19.50;11.60;;;;;;;3.94;88.18;98125.11;220328;1257;141075;-69
2023/11/14 00:57:13;;;;;;;18.40;10.70;;;;;;;4.05;88.42;98112.59;220293;1257;140795;-69
2023/11/14 01:02:16;;;;;;;17.30;11.00;;;;;;;4.11;88.83;98112.11;217293;1260;139836;-70
2023/11/14 01:07:20;;;;;;;15.00;11.00;;;;;;;4.17;88.93;98093.98;219392;1256;139974;-72
2023/11/14 01:12:25;;;;;;;17.10;12.50;;;;;;;4.24;89.47;98104.41;220087;1257;140379;-72
2023/11/14 01:17:29;;;;;;;21.10;12.90;;;;;;;4.33;89.61;98107.41;219878;1257;449412;-73
2023/11/14 01:22:35;;;;;;;22.50;12.60;;;;;;;4.44;89.72;98087.89;220127;1257;140008;-72
2023/11/14 01:27:40;;;;;;;21.80;12.60;;;;;;;4.55;90.27;98089.54;220103;1257;140748;-72
2023/11/14 01:32:44;;;;;;;18.60;13.30;;;;;;;4.70;90.75;98077.83;218730;1257;141165;-69
2023/11/14 01:37:48;;;;;;;21.10;14.30;;;;;;;4.84;91.03;98054.73;220039;1257;156187;-69
2023/11/14 01:42:51;;;;;;;17.90;12.20;;;;;;;4.96;91.57;98075.31;220066;1257;140860;-70
2023/11/14 01:47:56;;;;;;;14.90;10.00;;;;;;;5.08;91.70;98074.58;217118;1257;140258;-68
2023/11/14 01:52:59;;;;;;;17.40;11.20;;;;;;;5.20;91.48;98064.19;220174;1257;140058;-70
2023/11/14 01:58:03;;;;;;;12.70;8.80;;;;;;;5.30;91.83;98067.34;220165;1257;140061;-69
2023/11/14 02:03:07;;;;;;;12.60;8.70;;;;;;;5.42;92.25;98061.14;217631;1256;233062;-69
2023/11/14 02:08:09;;;;;;;15.70;9.90;;;;;;;5.53;92.21;98066.27;219589;1257;140539;-69
2023/11/14 02:13:13;;;;;;;13.60;9.80;;;;;;;5.63;92.64;98069.10;219944;1257;139903;-68
2023/11/14 02:18:19;;;;;;;11.60;9.80;;;;;;;5.73;92.67;98062.75;220167;1257;140541;-69
2023/11/14 02:23:26;;;;;;;9.80;8.20;;;;;;;5.83;93.00;98076.83;220397;1257;139799;-69
2023/11/14 02:28:29;;;;;;;15.50;10.10;;;;;;;5.91;92.97;98071.30;220202;1256;140410;-68
2023/11/14 02:33:33;;;;;;;12.80;9.40;;;;;;;5.99;92.89;98078.71;220100;1257;140830;-68
2023/11/14 02:38:37;;;;;;;11.70;7.70;;;;;;;6.08;93.12;98088.36;220220;1256;139854;-68
2023/11/14 02:43:40;;;;;;;12.20;8.00;;;;;;;6.18;93.59;98096.08;220059;1256;142503;-68
2023/11/14 02:48:44;;;;;;;11.70;9.20;;;;;;;6.28;93.19;98099.38;220227;1257;139672;-69
2023/11/14 02:53:49;;;;;;;10.60;5.90;;;;;;;6.38;93.46;98103.06;220164;1255;139698;-68
2023/11/14 02:58:53;;;;;;;6.80;6.10;;;;;;;6.50;93.65;98110.38;220291;1257;140476;-68
2023/11/14 03:03:55;;;;;;;9.90;7.30;;;;;;;6.61;93.80;98097.27;220041;1256;139803;-68
2023/11/14 03:08:58;;;;;;;7.90;7.00;;;;;;;6.72;94.19;98094.88;219985;1256;139732;-69
2023/11/14 03:14:01;;;;;;;10.00;6.80;;;;;;;6.83;94.80;98093.09;220258;1256;140138;-71
2023/11/14 03:19:05;;;;;;;9.20;6.00;;;;;;;6.93;94.58;98093.61;220215;1255;140601;-69
2023/11/14 03:24:10;;;;;;;8.40;6.20;;;;;;;7.01;94.87;98095.12;218148;1260;139640;-68
2023/11/14 03:29:12;;;;;;;9.40;5.90;;;;;;;7.09;94.93;98100.73;219508;1257;140352;-68
2023/11/14 03:34:16;;;;;;;11.80;6.20;;;;;;;7.16;94.90;98112.77;218799;1257;139373;-68
2023/11/14 03:39:19;;;;;;;6.70;5.40;;;;;;;7.23;95.02;98129.75;220342;1256;140126;-69
2023/11/14 03:44:22;;;;;;;8.30;4.60;;;;;;;7.29;95.23;98144.98;220536;1256;139774;-70
2023/11/14 03:49:25;;;;;;;11.40;5.90;;;;;;;7.35;95.27;98149.99;219307;1257;140235;-68
2023/11/14 03:54:28;;;;;;;14.20;7.80;;;;;;;7.41;95.50;98156.36;219238;1256;140367;-70
2023/11/14 03:59:30;;;;;;;7.10;5.40;;;;;;;7.47;95.17;98153.54;220633;1257;140858;-69
2023/11/14 04:04:33;;;;;;;8.50;5.60;;;;;;;7.51;95.29;98153.85;220175;1256;152313;-69
2023/11/14 04:09:40;;;;;;;6.40;5.10;;;;;;;7.56;95.24;98157.33;219163;1257;139464;-68
2023/11/14 04:14:43;;;;;;;10.10;7.70;;;;;;;7.60;95.41;98156.10;219985;1257;140797;-68
2023/11/14 04:19:45;;;;;;;8.20;6.10;;;;;;;7.64;95.21;98161.30;220326;1256;140822;-70
2023/11/14 04:24:48;;;;;;;7.60;6.50;;;;;;;7.68;95.45;98164.84;220354;1256;139933;-70
2023/11/14 04:29:51;;;;;;;10.00;7.80;;;;;;;7.71;95.61;98169.73;220153;1256;140370;-68
2023/11/14 04:34:55;;;;;;;9.00;6.20;;;;;;;7.75;95.42;98162.45;219344;1256;141836;-68
2023/11/14 04:39:58;;;;;;;6.20;4.90;;;;;;;7.77;95.16;98161.52;220059;1256;139699;-69
2023/11/14 04:45:01;;;;;;;8.50;6.40;;;;;;;7.79;95.57;98170.44;220180;1257;140195;-72
2023/11/14 04:50:05;;;;;;;7.90;6.30;;;;;;;7.83;95.40;98184.16;220324;1256;140636;-72
2023/11/14 04:55:11;;;;;;;6.90;5.50;;;;;;;7.85;95.47;98192.83;220311;1256;140099;-68
2023/11/14 05:00:13;;;;;;;8.90;6.40;;;;;;;7.88;95.27;98204.73;220127;1256;140305;-70
2023/11/14 05:05:17;;;;;;;11.00;6.00;;;;;;;7.89;95.62;98206.44;220258;1257;139985;-72
2023/11/14 05:10:20;;;;;;;7.20;5.80;;;;;;;7.90;95.55;98212.66;220301;1256;140570;-68
2023/11/14 05:15:22;;;;;;;7.30;5.10;;;;;;;7.92;95.45;98219.26;220558;1256;140894;-69
2023/11/14 05:20:27;;;;;;;8.00;5.50;;;;;;;7.93;95.23;98224.20;220248;1257;140196;-68
2023/11/14 05:25:34;;;;;;;4.80;3.40;;;;;;;7.95;95.23;98233.54;220052;1256;142055;-69
2023/11/14 05:30:36;;;;;;;3.90;3.60;;;;;;;7.96;95.34;98234.86;220147;1256;140467;-69
2023/11/14 05:35:39;;;;;;;4.10;2.70;;;;;;;7.97;95.38;98242.77;220525;1256;139763;-70
2023/11/14 05:40:42;;;;;;;5.90;3.30;;;;;;;7.98;95.19;98244.54;220186;1256;141668;-69
2023/11/14 05:45:45;;;;;;;6.00;2.50;;;;;;;7.99;95.21;98246.66;217217;1256;139439;-69
2023/11/14 05:50:49;;;;;;;8.80;4.60;;;;;;;7.99;95.20;98252.08;219485;1256;139733;-71
2023/11/14 05:55:52;;;;;;;3.30;2.20;;;;;;;7.98;95.37;98253.18;220081;1256;150674;-71
2023/11/14 06:00:55;;;;;;;7.60;3.90;;;;;;;7.99;95.55;98261.41;219963;1256;140746;-70
2023/11/14 06:05:59;;;;;;;14.80;3.90;;;;;;;8.00;95.52;98271.66;220297;1256;140573;-72
2023/11/14 06:11:02;;;;;;;6.30;2.30;;;;;;;8.04;95.68;98289.16;220449;1256;142836;-70
2023/11/14 06:16:05;;;;;;;4.50;2.50;;;;;;;8.09;95.64;98295.10;220277;1256;140887;-72
2023/11/14 06:21:07;;;;;;;5.20;2.80;;;;;;;8.14;95.58;98302.05;220180;1256;140895;-69
2023/11/14 06:26:10;;;;;;;4.10;2.40;;;;;;;8.19;95.47;98310.64;218640;1256;140141;-71
2023/11/14 06:31:12;;;;;;;5.60;2.80;;;;;;;8.23;95.36;98313.60;220208;1256;139279;-69
2023/11/14 06:36:15;;;;;;;5.10;2.00;;;;;;;8.28;95.24;98314.14;220097;1256;140735;-69
2023/11/14 06:41:17;;;;;;;9.20;2.30;;;;;;;8.33;95.38;98320.79;218145;1256;140695;-71
2023/11/14 06:46:19;;;;;;;8.40;2.10;;;;;;;8.38;94.93;98323.13;220410;1256;141628;-72
2023/11/14 06:51:22;;;;;;;2.70;1.80;;;;;;;8.39;94.89;98330.93;220187;1256;141458;-71
2023/11/14 06:56:25;;;;;;;4.00;2.80;;;;;;;8.44;94.87;98330.23;219145;1256;139987;-68
2023/11/14 07:01:28;;;;;;;7.10;2.40;;;;;;;8.51;94.83;98334.12;219577;1257;139695;-69
2023/11/14 07:06:31;;;;;;;5.70;2.90;;;;;;;8.59;94.59;98340.52;220187;1256;140614;-71
2023/11/14 07:11:34;;;;;;;5.50;2.00;;;;;;;8.67;94.62;98343.29;220400;1256;139755;-70
2023/11/14 07:16:37;;;;;;;7.30;3.10;;;;;;;8.74;94.28;98342.33;220415;1255;140141;-72
2023/11/14 07:21:40;;;;;;;5.00;1.30;;;;;;;8.81;94.01;98337.91;220148;1256;140275;-70
2023/11/14 07:26:44;;;;;;;10.70;3.00;;;;;;;8.90;93.78;98334.23;220331;1257;140846;-70
2023/11/14 07:31:47;;;;;;;6.40;1.60;;;;;;;9.03;93.63;98339.24;219823;1256;140677;-68
2023/11/14 07:36:49;;;;;;;11.50;2.40;;;;;;;9.15;93.33;98329.73;219166;1256;139798;-70
2023/11/14 07:41:52;;;;;;;5.30;2.40;;;;;;;9.25;93.21;98326.41;220174;1257;141055;-69
2023/11/14 07:46:55;;;;;;;4.70;2.50;;;;;;;9.34;92.96;98333.31;219039;1256;140373;-69
2023/11/14 07:52:19;;;;;;;13.00;4.20;;;;;;;9.41;92.63;98336.55;220273;1257;140094;-71
2023/11/14 07:57:21;;;;;;;6.30;2.80;;;;;;;9.51;92.39;98336.61;220306;1256;140455;-70
2023/11/14 08:02:24;;;;;;;5.10;3.10;;;;;;;9.69;92.14;98336.66;218990;1256;211359;-69
2023/11/14 08:07:27;;;;;;;6.20;1.80;;;;;;;9.82;91.85;98343.55;220222;1256;141470;-71
2023/11/14 08:12:31;;;;;;;6.90;2.90;;;;;;;9.93;91.48;98345.59;219926;1256;140587;-69
2023/11/14 08:17:34;;;;;;;9.70;2.00;;;;;;;10.06;90.90;98353.44;220364;1256;139932;-71
2023/11/14 08:22:37;;;;;;;8.30;2.70;;;;;;;10.14;90.46;98355.62;217755;1255;140891;-72
2023/11/14 08:27:42;;;;;;;10.00;2.50;;;;;;;10.22;90.02;98353.73;219312;1257;141777;-70
2023/11/14 08:32:47;;;;;;;10.90;3.50;;;;;;;10.36;89.84;98361.16;219782;1256;141403;-70
2023/11/14 08:37:50;;;;;;;7.80;2.70;;;;;;;10.51;89.45;98355.07;220050;1256;140231;-73
2023/11/14 08:42:53;;;;;;;6.60;2.00;;;;;;;10.62;88.66;98352.03;220164;1255;141073;-73
2023/11/14 08:48:00;;;;;;;5.70;2.60;;;;;;;10.65;88.01;98364.45;217747;1256;140866;-74
2023/11/14 08:53:03;;;;;;;9.90;2.00;;;;;;;10.66;87.54;98361.78;217984;1256;140199;-70
2023/11/14 08:58:06;;;;;;;5.70;1.60;;;;;;;10.64;87.30;98376.60;220097;1256;140199;-71
2023/11/14 09:03:09;;;;;;;6.50;2.30;;;;;;;10.62;87.02;98385.66;220204;1256;141545;-71
2023/11/14 09:08:12;;;;;;;6.80;2.50;;;;;;;10.60;86.72;98391.95;220045;1256;141941;-71
2023/11/14 09:13:15;;;;;;;6.40;2.50;;;;;;;10.65;86.46;98393.66;220199;1256;141266;-68
2023/11/14 09:18:19;;;;;;;8.50;2.30;;;;;;;10.61;86.25;98390.19;220117;1256;140814;-71
2023/11/14 09:23:22;;;;;;;2.90;1.50;;;;;;;10.59;86.26;98385.02;220389;1256;141239;-73
2023/11/14 09:28:25;;;;;;;6.50;2.00;;;;;;;10.59;86.48;98379.16;220035;1257;140142;-73
2023/11/14 09:33:27;;;;;;;7.20;1.80;;;;;;;10.67;86.40;98383.85;220154;1256;140477;-73
2023/11/14 09:38:30;;;;;;;7.90;2.50;;;;;;;10.66;86.06;98388.54;220157;1256;140160;-71
2023/11/14 09:43:34;;;;;;;6.90;3.20;;;;;;;10.54;86.06;98380.80;220021;1256;141246;-72
2023/11/14 09:48:37;;;;;;;12.20;3.70;;;;;;;10.51;86.29;98381.61;220127;1257;140939;-70
2023/11/14 09:53:44;;;;;;;7.80;2.00;;;;;;;10.60;86.33;98380.76;219954;1256;141603;-71
2023/11/14 09:58:53;;;;;;;7.20;2.40;;;;;;;10.73;86.64;98373.80;220206;1256;140649;-70
2023/11/14 10:03:56;;;;;;;9.80;2.80;;;;;;;10.89;86.85;98374.16;220147;1256;140653;-70
2023/11/14 10:09:15;;;;;;;4.00;1.90;;;;;;;11.10;86.72;98371.77;220297;1256;141223;-70
2023/11/14 10:14:19;;;;;;;5.60;2.40;;;;;;;11.33;86.41;98372.75;219310;1257;140344;-70
2023/11/14 10:19:24;;;;;;;9.80;2.20;;;;;;;11.35;86.22;98371.98;220179;1256;141752;-69
2023/11/14 10:24:27;;;;;;;10.40;2.60;;;;;;;11.38;85.72;98368.62;220012;1256;140827;-69
2023/11/14 10:29:30;;;;;;;8.70;3.20;;;;;;;11.38;85.16;98373.21;220137;1256;140759;-71
2023/11/14 10:34:34;;;;;;;6.30;2.40;;;;;;;11.40;84.98;98372.77;217912;1256;140924;-71
2023/11/14 10:39:53;;;;;;;5.50;1.70;;;;;;;11.42;84.86;98373.68;219868;1257;140637;-72
2023/11/14 10:45:02;;;;;;;7.30;1.60;;;;;;;11.44;84.32;98370.58;220029;1257;140553;-69
2023/11/14 10:50:31;;;;;;;8.60;3.10;;;;;;;11.45;83.85;98371.42;220158;1256;140647;-69
2023/11/14 10:55:36;;;;;;;9.50;2.20;;;;;;;11.49;83.25;98357.38;220079;1256;140163;-71
2023/11/14 11:00:40;;;;;;;8.90;1.60;;;;;;;11.64;83.17;98353.73;220346;1257;140181;-70
2023/11/14 11:05:43;;;;;;;10.40;3.50;;;;;;;11.93;83.25;98357.11;220138;1257;140232;-69
2023/11/14 11:10:48;;;;;;;6.20;1.10;;;;;;;11.99;82.40;98349.38;220260;1256;141642;-69
2023/11/14 11:15:56;;;;;;;6.20;1.80;;;;;;;11.94;81.81;98351.65;220005;1256;140905;-69
2023/11/14 11:21:19;;;;;;;6.90;1.90;;;;;;;11.92;81.68;98353.54;220111;1256;140315;-70
2023/11/14 11:26:22;;;;;;;6.00;1.80;;;;;;;11.88;81.46;98353.15;220092;1256;141183;-69
2023/11/14 11:31:25;;;;;;;16.10;2.80;;;;;;;11.85;81.12;98357.60;220223;1256;139949;-70
2023/11/14 11:36:28;;;;;;;5.90;2.70;;;;;;;11.78;81.23;98350.95;220109;1259;140326;-69
2023/11/14 11:41:34;;;;;;;5.70;2.30;;;;;;;11.71;81.02;98355.08;220424;1257;140582;-69
2023/11/14 11:46:40;;;;;;;6.60;2.10;;;;;;;11.64;80.67;98360.39;220355;1256;248732;-69
2023/11/14 11:51:47;;;;;;;4.30;2.00;;;;;;;11.55;80.86;98354.26;220035;1257;140650;-70
2023/11/14 11:57:11;;;;;;;10.90;2.00;;;;;;;11.48;81.20;98342.70;219847;1258;140931;-72
2023/11/14 12:02:27;;;;;;;7.10;2.10;;;;;;;11.50;81.24;98329.73;219825;1256;140256;-72
2023/11/14 12:07:30;;;;;;;4.00;1.80;;;;;;;11.59;81.17;98331.82;219066;1256;141334;-73
2023/11/14 12:12:37;;;;;;;5.60;1.90;;;;;;;11.66;80.95;98339.13;218759;1256;141102;-71
2023/11/14 12:17:40;;;;;;;4.00;1.60;;;;;;;11.68;80.75;98338.54;220360;1256;140239;-72
2023/11/14 12:22:43;;;;;;;7.70;2.60;;;;;;;11.73;80.87;98335.05;220132;1256;140519;-72
2023/11/14 12:27:54;;;;;;;6.50;2.70;;;;;;;11.79;80.75;98326.60;220093;1257;139628;-72
2023/11/14 12:33:05;;;;;;;8.00;3.20;;;;;;;11.81;80.39;98324.14;219455;1256;141531;-72
2023/11/14 12:38:12;;;;;;;8.00;2.60;;;;;;;11.83;79.99;98322.79;219482;1258;139969;-72
2023/11/14 12:43:17;;;;;;;7.50;2.50;;;;;;;11.82;79.97;98322.32;220365;1256;140527;-73
2023/11/14 12:48:19;;;;;;;7.40;2.20;;;;;;;11.79;79.55;98320.41;220290;1256;140024;-71
2023/11/14 12:53:32;;;;;;;7.90;1.60;;;;;;;11.82;79.54;98314.20;220337;1258;140258;-73
2023/11/14 12:58:35;;;;;;;7.20;1.90;;;;;;;11.87;79.43;98306.32;220195;1256;140430;-73
2023/11/14 13:03:38;;;;;;;6.30;2.30;;;;;;;11.88;79.27;98311.34;220295;1258;140203;-71
2023/11/14 13:08:42;;;;;;;9.10;2.20;;;;;;;11.81;78.80;98319.77;220293;1257;140221;-71
2023/11/14 13:13:47;;;;;;;10.10;2.60;;;;;;;11.75;78.77;98325.33;220371;1256;141625;-72
2023/11/14 13:18:50;;;;;;;7.10;1.50;;;;;;;11.72;78.94;98322.81;220047;1255;395082;-73
2023/11/14 13:23:55;;;;;;;8.10;4.70;;;;;;;11.66;78.78;98324.08;220418;1255;140484;-74
2023/11/14 13:28:59;;;;;;;2.80;2.50;;;;;;;11.59;78.84;98313.28;220569;1255;140377;-74
2023/11/14 13:34:07;;;;;;;10.10;2.80;;;;;;;11.56;78.78;98310.70;220264;1256;140394;-72
2023/11/14 13:39:12;;;;;;;8.70;2.60;;;;;;;11.54;78.67;98309.31;220364;1256;140021;-73
2023/11/14 13:44:17;;;;;;;4.90;2.10;;;;;;;11.42;78.40;98306.81;220374;1256;140898;-72
2023/11/14 13:49:22;;;;;;;6.00;3.00;;;;;;;11.31;78.58;98308.00;220086;1256;141353;-72
2023/11/14 13:54:26;;;;;;;6.40;2.90;;;;;;;11.22;78.36;98300.89;218704;1258;140455;-72
2023/11/14 13:59:29;;;;;;;6.10;2.40;;;;;;;11.19;78.51;98290.77;220258;1256;140146;-73
2023/11/14 14:04:35;;;;;;;6.40;3.20;;;;;;;11.17;78.25;98289.55;220116;1259;142289;-72
2023/11/14 14:09:40;;;;;;;7.10;2.40;;;;;;;11.11;78.32;98279.75;219657;1256;140423;-71
2023/11/14 14:14:44;;;;;;;3.30;1.70;;;;;;;11.09;78.22;98282.48;220067;1256;141663;-74
2023/11/14 14:19:47;;;;;;;8.30;2.10;;;;;;;11.06;78.29;98275.98;220435;1256;140144;-73
2023/11/14 14:24:50;;;;;;;7.10;2.50;;;;;;;11.02;78.28;98280.00;218271;1257;140929;-73
2023/11/14 14:29:52;;;;;;;7.70;2.90;;;;;;;10.98;78.13;98272.30;219007;1256;141910;-73
2023/11/14 14:34:58;;;;;;;7.60;2.20;;;;;;;10.90;78.27;98272.27;220502;1257;140725;-72
2023/11/14 14:40:06;;;;;;;;;;;;;;;10.83;78.59;98276.34;218799;1256;140046;-71
2023/11/14 14:45:10;;;;;;;13.10;3.40;;;;;;;10.78;78.63;98279.65;218478;1259;128440;-73
2023/11/14 14:50:13;;;;;;;2.80;2.00;;;;;;;10.74;78.64;98276.30;220168;1256;141793;-74
2023/11/14 14:55:16;;;;;;;3.40;1.90;;;;;;;10.69;78.66;98277.94;220017;1258;140902;-74
2023/11/14 15:00:21;;;;;;;4.00;1.90;;;;;;;10.66;78.44;98283.27;220364;1256;140745;-75
2023/11/14 15:05:27;;;;;;;7.60;1.80;;;;;;;10.65;78.30;98280.66;220351;1257;141461;-75
2023/11/14 15:10:31;;;;;;;4.10;2.80;;;;;;;10.63;78.53;98281.41;220259;1258;140717;-72
2023/11/14 15:15:33;;;;;;;5.00;1.80;;;;;;;10.61;78.36;98292.40;220271;1259;141102;-73
2023/11/14 15:20:36;;;;;;;13.70;7.10;;;;;;;10.57;78.39;98287.28;220116;1256;141204;-71
2023/11/14 15:25:39;;;;;;;9.40;5.20;;;;;;;10.53;78.24;98289.80;220179;1259;140673;-73
2023/11/14 15:30:43;;;;;;;15.00;7.40;;;;;;;10.50;78.15;98297.89;220413;1259;140306;-70
2023/11/14 15:35:46;;;;;;;41.10;29.50;;;;;;;10.45;78.27;98294.17;220349;1257;142223;-71
2023/11/14 15:40:50;;;;;;;6.80;4.90;;;;;;;10.43;78.51;98293.48;220235;1257;237597;-71
2023/11/14 15:45:56;;;;;;;6.50;2.30;;;;;;;10.43;78.52;98289.80;218795;1260;141022;-71
2023/11/14 15:51:02;;;;;;;7.90;3.40;;;;;;;10.41;78.50;98289.44;219627;1256;140840;-72
2023/11/14 15:56:07;;;;;;;5.80;4.00;;;;;;;10.37;78.33;98282.80;219649;1259;141571;-74
2023/11/14 16:01:10;;;;;;;4.70;3.60;;;;;;;10.36;78.55;98289.41;220260;1259;140931;-72
2023/11/14 16:06:15;;;;;;;6.20;3.50;;;;;;;10.35;78.58;98295.96;219262;1256;141206;-72
2023/11/14 16:11:18;;;;;;;5.70;3.50;;;;;;;10.33;78.31;98297.50;217882;1256;140212;-71
2023/11/14 16:16:22;;;;;;;10.90;3.90;;;;;;;10.29;78.38;98294.98;220296;1259;140829;-72
2023/11/14 16:21:25;;;;;;;11.40;3.20;;;;;;;10.25;78.66;98306.29;218647;1257;141585;-69
2023/11/14 16:26:28;;;;;;;3.50;2.40;;;;;;;10.23;78.51;98309.05;217963;1260;140481;-69
2023/11/14 16:31:37;;;;;;;7.50;4.40;;;;;;;10.18;78.59;98307.59;220295;1257;140197;-72
2023/11/14 16:36:40;;;;;;;11.60;3.40;;;;;;;10.18;78.58;98308.45;218946;1260;140909;-69
2023/11/14 16:41:45;;;;;;;9.20;2.80;;;;;;;10.18;78.64;98308.27;220235;1255;140726;-73
2023/11/14 16:46:49;;;;;;;12.90;4.20;;;;;;;10.17;78.53;98309.55;220164;1256;140643;-72
2023/11/14 16:51:53;;;;;;;6.00;2.30;;;;;;;10.16;78.49;98310.94;219356;1260;141414;-70
2023/11/14 16:56:59;;;;;;;5.60;2.70;;;;;;;10.16;78.43;98308.80;220274;1256;141182;-71
2023/11/14 17:02:02;;;;;;;8.70;3.30;;;;;;;10.13;78.33;98305.13;218189;1259;140687;-70
2023/11/14 17:07:06;;;;;;;10.70;5.20;;;;;;;10.12;78.25;98301.45;219236;1258;139866;-71
2023/11/14 17:12:12;;;;;;;4.60;3.30;;;;;;;10.08;78.46;98299.71;218582;1257;140446;-71
2023/11/14 17:17:20;;;;;;;11.30;3.20;;;;;;;10.06;78.34;98301.64;220335;1257;141656;-69
2023/11/14 17:22:37;;;;;;;11.70;4.40;;;;;;;10.04;78.31;98297.64;220256;1257;141009;-70
2023/11/14 17:27:40;;;;;;;4.00;2.00;;;;;;;10.04;78.20;98296.52;220120;1257;141211;-69
2023/11/14 17:32:46;;;;;;;6.70;2.90;;;;;;;10.00;78.05;98299.17;220091;1257;140820;-69
2023/11/14 17:37:48;;;;;;;7.30;3.30;;;;;;;9.94;78.05;98299.27;220472;1257;140726;-70
2023/11/14 17:42:52;;;;;;;8.50;3.50;;;;;;;9.94;78.25;98300.77;220038;1257;140659;-70
2023/11/14 17:47:57;;;;;;;7.90;2.70;;;;;;;9.95;78.18;98305.20;219610;1257;140258;-70
2023/11/14 17:53:03;;;;;;;4.70;2.40;;;;;;;9.95;78.13;98302.79;220400;1258;141934;-71
2023/11/14 17:58:09;;;;;;;13.50;3.40;;;;;;;9.97;78.26;98302.52;220129;1257;141241;-71
2023/11/14 18:03:14;;;;;;;5.90;3.00;;;;;;;9.98;78.02;98303.48;220140;1257;140650;-73
2023/11/14 18:08:17;;;;;;;8.30;2.60;;;;;;;10.01;78.07;98306.69;219192;1256;141745;-71
2023/11/14 18:13:21;;;;;;;8.20;2.40;;;;;;;10.03;77.87;98306.05;220176;1258;141092;-71
2023/11/14 18:18:24;;;;;;;7.10;2.80;;;;;;;10.04;77.84;98301.48;220179;1257;140885;-72
2023/11/14 18:23:27;;;;;;;23.10;2.90;;;;;;;10.04;77.83;98299.35;220158;1256;140343;-69
2023/11/14 18:28:31;;;;;;;7.70;2.10;;;;;;;10.07;77.90;98299.98;220187;1257;140794;-70
2023/11/14 18:33:34;;;;;;;6.70;3.70;;;;;;;10.10;77.61;98300.08;219356;1258;140823;-70
2023/11/14 18:38:42;;;;;;;13.80;2.70;;;;;;;10.13;77.74;98294.48;220081;1257;141464;-69
2023/11/14 18:43:48;;;;;;;10.90;3.20;;;;;;;10.15;77.66;98295.06;220177;1257;140742;-71
2023/11/14 18:48:51;;;;;;;11.30;3.50;;;;;;;10.17;77.62;98283.62;220138;1257;140635;-71
2023/11/14 18:53:54;;;;;;;4.00;2.00;;;;;;;10.20;77.47;98283.76;220231;1258;140291;-71
2023/11/14 18:58:56;;;;;;;10.30;4.10;;;;;;;10.20;77.54;98283.77;219968;1257;140740;-72
2023/11/14 19:03:59;;;;;;;5.10;3.40;;;;;;;10.21;77.39;98280.24;220120;1257;140548;-71
2023/11/14 19:09:08;;;;;;;5.40;2.60;;;;;;;10.18;77.17;98283.64;220174;1256;140605;-70
2023/11/14 19:14:11;;;;;;;7.50;3.20;;;;;;;10.16;77.13;98287.35;220220;1256;140360;-72
2023/11/14 19:19:14;;;;;;;17.30;4.90;;;;;;;10.10;77.09;98279.68;220115;1256;140152;-73
2023/11/14 19:24:22;;;;;;;7.00;2.90;;;;;;;10.03;77.02;98281.09;220335;1257;142631;-72
2023/11/14 19:29:29;;;;;;;6.80;3.00;;;;;;;9.97;76.94;98276.82;220328;1256;140512;-73
2023/11/14 19:34:32;;;;;;;4.50;2.90;;;;;;;9.91;77.21;98269.36;220399;1257;140433;-74
2023/11/14 19:39:35;;;;;;;8.60;3.30;;;;;;;9.88;77.17;98264.52;220405;1256;140314;-71
2023/11/14 19:44:39;;;;;;;8.60;3.60;;;;;;;9.89;77.27;98261.58;220127;1258;140969;-74
2023/11/14 19:49:46;;;;;;;7.00;3.60;;;;;;;9.92;77.37;98254.18;220030;1256;141016;-74
2023/11/14 19:54:50;;;;;;;6.50;2.80;;;;;;;9.92;77.19;98251.57;220225;1256;140961;-74
2023/11/14 19:59:55;;;;;;;11.50;3.80;;;;;;;9.88;77.15;98249.18;220359;1256;140458;-74
2023/11/14 20:04:58;;;;;;;6.30;2.90;;;;;;;9.86;77.35;98247.37;220315;1257;140889;-73
2023/11/14 20:10:01;;;;;;;9.70;3.30;;;;;;;9.87;77.54;98249.45;220213;1256;140922;-72
2023/11/14 20:15:09;;;;;;;6.90;3.20;;;;;;;9.88;77.34;98248.75;219440;1257;139852;-74
2023/11/14 20:20:14;;;;;;;4.80;2.60;;;;;;;9.88;77.52;98248.48;220255;1257;140125;-72
2023/11/14 20:25:17;;;;;;;8.10;3.80;;;;;;;9.91;77.51;98258.23;220048;1257;140447;-72
2023/11/14 20:30:24;;;;;;;4.60;3.10;;;;;;;9.96;77.79;98257.27;219006;1257;140389;-72
2023/11/14 20:35:27;;;;;;;7.90;3.40;;;;;;;9.98;77.72;98257.65;220589;1256;140465;-72
2023/11/14 20:40:29;;;;;;;12.10;4.00;;;;;;;9.99;77.78;98248.27;219222;1257;139978;-72
2023/11/14 20:45:33;;;;;;;10.40;3.70;;;;;;;10.01;77.98;98251.59;220220;1256;140472;-72
2023/11/14 20:50:38;;;;;;;6.20;3.30;;;;;;;10.03;77.89;98251.37;219466;1255;141579;-71
2023/11/14 20:55:40;;;;;;;10.90;5.20;;;;;;;10.03;78.02;98250.95;218664;1254;140778;-69
2023/11/14 21:00:43;;;;;;;10.80;5.80;;;;;;;10.00;78.04;98256.21;220420;1256;140248;-74
2023/11/14 21:05:45;;;;;;;17.90;4.00;;;;;;;9.95;78.40;98257.23;218613;1257;141249;-74
2023/11/14 21:10:47;;;;;;;7.00;3.90;;;;;;;9.87;78.64;98254.92;220214;1256;142470;-72
2023/11/14 21:15:50;;;;;;;6.80;3.50;;;;;;;9.78;78.99;98253.06;220143;1256;140315;-72
2023/11/14 21:20:52;;;;;;;9.40;4.40;;;;;;;9.71;79.33;98255.30;219683;1257;140524;-70
2023/11/14 21:25:54;;;;;;;7.70;3.10;;;;;;;9.68;79.54;98258.86;220088;1255;140211;-69
2023/11/14 21:31:06;;;;;;;10.50;3.50;;;;;;;9.66;79.76;98258.70;218406;1257;140978;-70
2023/11/14 21:36:10;;;;;;;6.60;6.00;;;;;;;9.66;79.79;98253.96;220053;1258;140637;-70
2023/11/14 21:41:19;;;;;;;3.60;2.90;;;;;;;9.65;79.84;98250.77;220159;1257;142410;-70
2023/11/14 21:46:23;;;;;;;7.40;3.40;;;;;;;9.67;79.95;98251.63;220048;1256;141016;-70
2023/11/14 21:51:25;;;;;;;6.20;2.60;;;;;;;9.70;80.02;98252.37;220145;1256;140532;-70
2023/11/14 21:56:27;;;;;;;5.50;3.90;;;;;;;9.72;79.99;98251.10;220001;1256;140857;-70
2023/11/14 22:02:06;;;;;;;8.00;2.50;;;;;;;9.73;80.00;98247.11;220159;1256;140417;-71
2023/11/14 22:07:08;;;;;;;5.60;3.40;;;;;;;9.76;79.98;98241.48;220127;1256;140259;-70
2023/11/14 22:12:11;;;;;;;11.00;3.50;;;;;;;9.78;80.06;98238.48;219958;1257;142198;-69
2023/11/14 22:17:15;;;;;;;4.20;3.00;;;;;;;9.82;80.06;98235.55;220046;1256;140486;-70
2023/11/14 22:22:19;;;;;;;5.30;3.00;;;;;;;9.83;79.99;98237.67;219945;1257;141108;-70
2023/11/14 22:27:21;;;;;;;6.40;3.30;;;;;;;9.84;79.99;98239.91;220043;1256;141466;-70
2023/11/14 22:32:27;;;;;;;5.50;2.90;;;;;;;9.84;79.90;98240.70;219972;1256;141184;-70
2023/11/14 22:37:31;;;;;;;7.90;3.70;;;;;;;9.85;80.02;98241.67;219971;1256;141844;-70
2023/11/14 22:42:34;;;;;;;7.70;3.30;;;;;;;9.86;79.94;98242.58;220004;1257;140014;-68
2023/11/14 22:47:37;;;;;;;8.50;2.70;;;;;;;9.85;79.80;98245.39;220322;1255;140484;-70
2023/11/14 22:52:41;;;;;;;6.60;3.00;;;;;;;9.84;79.88;98242.47;218123;1256;139860;-70
2023/11/14 22:57:45;;;;;;;7.60;3.30;;;;;;;9.83;79.95;98245.77;219781;1256;141254;-70
2023/11/14 23:02:48;;;;;;;8.70;4.00;;;;;;;9.84;79.98;98241.35;220450;1255;140309;-70
2023/11/14 23:07:52;;;;;;;6.10;2.90;;;;;;;9.82;80.08;98251.19;220409;1255;140468;-70
2023/11/14 23:12:59;;;;;;;5.60;3.00;;;;;;;9.83;80.02;98250.19;217500;1258;140579;-69
2023/11/14 23:18:04;;;;;;;7.90;4.00;;;;;;;9.81;80.07;98254.54;220380;1255;142473;-71
2023/11/14 23:23:08;;;;;;;9.00;3.10;;;;;;;9.78;80.12;98252.64;220596;1255;140881;-70